Time;durP1;ratioP1;P1;durP2;ratioP2;P2;SDS_P1;SDS_P2;PMS_P1;PMS_P2;Temp;Humidity;BMP_temperature;BMP_pressure;BME280_temperature;BME280_humidity;BME280_pressure;Samples;Min_cycle;Max_cycle;Signal;HPM_P1;HPM_P2
2022/05/18 00:00:15;;;;;;;10.20;6.03;;;;;;;20.66;100.00;61586.06;5093283;28;20060;-81
2022/05/18 00:02:41;;;;;;;8.23;5.70;;;;;;;-144.47;100.00;61586.06;5089457;28;20054;-81
2022/05/18 00:05:07;;;;;;;8.73;5.57;;;;;;;-144.47;100.00;61586.06;5093456;28;20032;-81
2022/05/18 00:07:33;;;;;;;6.50;5.90;;;;;;;-144.47;100.00;61586.06;5093388;28;20028;-81
2022/05/18 00:09:59;;;;;;;9.13;6.53;;;;;;;20.58;100.00;61586.06;5092898;28;20044;-81
2022/05/18 00:12:26;;;;;;;9.55;5.90;;;;;;;-144.47;100.00;61586.06;5092961;28;20072;-81
2022/05/18 00:14:52;;;;;;;7.50;5.25;;;;;;;-144.47;100.00;61586.06;5093042;28;20071;-81
2022/05/18 00:17:17;;;;;;;7.78;6.32;;;;;;;-144.47;100.00;61586.06;5093549;28;20114;-81
2022/05/18 00:19:43;;;;;;;8.00;5.72;;;;;;;-144.47;100.00;61586.06;5093019;28;20110;-81
2022/05/18 00:22:09;;;;;;;7.55;6.38;;;;;;;-144.47;100.00;61586.06;5093034;28;20472;-82
2022/05/18 00:24:36;;;;;;;8.70;5.65;;;;;;;-144.47;100.00;61586.06;5093172;28;20062;-81
2022/05/18 00:27:03;;;;;;;10.18;6.57;;;;;;;-144.47;100.00;61586.06;5092578;28;20626;-80
2022/05/18 00:29:33;;;;;;;9.77;6.07;;;;;;;-144.47;100.00;61586.06;5091274;28;20047;-81
2022/05/18 00:31:58;;;;;;;8.48;5.90;;;;;;;21.26;100.00;61586.06;5091014;28;20044;-81
2022/05/18 00:34:24;;;;;;;10.50;5.95;;;;;;;21.26;100.00;61586.06;5092544;28;20073;-81
2022/05/18 00:36:49;;;;;;;9.93;6.28;;;;;;;20.09;100.00;61586.06;5092295;28;20096;-81
2022/05/18 00:39:15;;;;;;;9.15;5.97;;;;;;;21.26;100.00;61586.06;5092246;28;20024;-81
2022/05/18 00:41:41;;;;;;;8.23;6.47;;;;;;;21.26;100.00;61586.06;5091052;28;20439;-81
2022/05/18 00:44:07;;;;;;;7.95;6.00;;;;;;;21.26;100.00;61586.06;5092160;28;20035;-79
2022/05/18 00:46:33;;;;;;;10.50;6.40;;;;;;;-144.47;100.00;61586.06;5089645;28;20506;-80
2022/05/18 00:49:01;;;;;;;7.45;5.72;;;;;;;-144.47;100.00;61586.06;5091296;28;20115;-81
2022/05/18 00:51:38;;;;;;;6.70;6.07;;;;;;;-144.47;100.00;61586.06;5091344;28;20409;-81
2022/05/18 00:54:04;;;;;;;9.02;6.93;;;;;;;-144.47;100.00;61586.06;5092964;28;21001;-80
2022/05/18 00:56:36;;;;;;;10.23;6.28;;;;;;;-144.47;100.00;61586.06;5092032;28;20032;-80
2022/05/18 00:59:18;;;;;;;8.52;6.47;;;;;;;19.80;100.00;61586.06;5088633;28;20115;-81
2022/05/18 01:01:44;;;;;;;9.68;6.65;;;;;;;-144.47;100.00;61586.06;5085680;28;20494;-81
2022/05/18 01:04:13;;;;;;;7.38;6.45;;;;;;;-144.47;100.00;61586.06;5086370;28;20106;-81
2022/05/18 01:06:48;;;;;;;7.38;6.47;;;;;;;-144.47;100.00;61586.06;5091935;28;20032;-81
2022/05/18 01:09:22;;;;;;;9.50;6.53;;;;;;;-144.47;100.00;61586.06;5088532;28;20040;-81
2022/05/18 01:11:48;;;;;;;10.20;6.70;;;;;;;-144.47;100.00;61586.06;5088937;28;20431;-81
2022/05/18 01:14:19;;;;;;;8.93;6.82;;;;;;;-144.47;100.00;61586.06;5092149;28;20052;-82
2022/05/18 01:16:46;;;;;;;9.13;6.63;;;;;;;-144.47;100.00;61586.06;5088226;28;20110;-82
2022/05/18 01:19:23;;;;;;;10.63;7.45;;;;;;;-144.47;100.00;61586.06;5092262;28;20038;-81
2022/05/18 01:22:01;;;;;;;9.25;6.70;;;;;;;-144.47;100.00;61586.06;5088907;28;20066;-81
2022/05/18 01:24:38;;;;;;;15.07;7.63;;;;;;;-144.47;100.00;61586.06;5091959;28;20056;-82
2022/05/18 01:27:05;;;;;;;11.18;7.45;;;;;;;-144.47;100.00;61586.06;5088081;28;20114;-81
2022/05/18 01:29:31;;;;;;;9.68;6.60;;;;;;;-144.47;100.00;61586.06;5091442;28;20032;-81
2022/05/18 01:32:03;;;;;;;11.30;7.70;;;;;;;-144.47;100.00;61586.06;5091734;28;20821;-81
2022/05/18 01:34:31;;;;;;;10.38;7.22;;;;;;;-144.47;100.00;61586.06;5091942;28;20198;-81
2022/05/18 01:36:57;;;;;;;7.53;6.80;;;;;;;-144.47;100.00;61586.06;5091364;28;20460;-81
2022/05/18 01:39:32;;;;;;;12.60;6.75;;;;;;;-144.47;100.00;61586.06;5091451;28;20077;-81
2022/05/18 01:42:14;;;;;;;8.93;7.00;;;;;;;-144.47;100.00;61586.06;5089989;28;20032;-81
2022/05/18 01:44:40;;;;;;;8.70;6.72;;;;;;;-144.47;100.00;61586.06;5085161;28;20400;-80
2022/05/18 01:47:06;;;;;;;9.27;6.65;;;;;;;187.31;100.00;61586.06;5091404;28;20031;-82
2022/05/18 01:49:34;;;;;;;9.32;8.05;;;;;;;187.31;100.00;61586.06;5091491;28;20043;-81
2022/05/18 01:52:00;;;;;;;10.55;7.40;;;;;;;187.31;100.00;61586.06;5091156;28;20042;-81
2022/05/18 01:54:26;;;;;;;8.77;7.43;;;;;;;-144.47;100.00;61586.06;5091509;28;20032;-81
2022/05/18 01:56:51;;;;;;;8.15;7.05;;;;;;;187.31;100.00;61586.06;5092364;28;20024;-80
2022/05/18 01:59:17;;;;;;;12.90;7.65;;;;;;;19.97;100.00;61586.06;5103244;28;20531;-81
2022/05/18 02:01:44;;;;;;;10.35;7.25;;;;;;;187.31;100.00;61586.06;5104753;28;20051;-81
2022/05/18 02:04:10;;;;;;;9.50;7.75;;;;;;;-144.47;100.00;61586.06;5086672;28;20562;-81
2022/05/18 02:06:36;;;;;;;14.32;8.18;;;;;;;-144.47;100.00;61586.06;5091605;28;20032;-81
2022/05/18 02:09:04;;;;;;;8.50;7.60;;;;;;;187.31;100.00;61586.06;5091155;28;20040;-82
2022/05/18 02:11:32;;;;;;;8.40;7.60;;;;;;;187.31;100.00;61586.06;5091392;28;20034;-81
2022/05/18 02:13:58;;;;;;;8.32;7.47;;;;;;;-144.47;100.00;61586.06;5090238;28;20032;-81
2022/05/18 02:16:23;;;;;;;8.68;7.75;;;;;;;-144.47;100.00;61586.06;5091042;28;20119;-81
2022/05/18 02:18:49;;;;;;;10.65;8.35;;;;;;;18.26;100.00;61586.06;5093035;28;20032;-81
2022/05/18 02:21:15;;;;;;;9.20;7.93;;;;;;;-144.47;100.00;61586.06;5098008;28;20092;-80
2022/05/18 02:23:43;;;;;;;12.93;7.72;;;;;;;187.31;100.00;61586.06;5096033;28;20111;-80
2022/05/18 02:26:13;;;;;;;9.40;8.30;;;;;;;-144.47;100.00;61586.06;5092375;28;20438;-81
2022/05/18 02:28:38;;;;;;;10.63;7.65;;;;;;;18.51;100.00;81418.38;5090398;28;20040;-81
2022/05/18 02:31:04;;;;;;;9.32;7.97;;;;;;;-144.47;100.00;61586.06;5090708;28;20161;-81
2022/05/18 02:33:30;;;;;;;9.77;7.78;;;;;;;21.26;100.00;61586.06;5092177;28;20028;-80
2022/05/18 02:35:56;;;;;;;10.85;8.50;;;;;;;187.31;100.00;61586.06;5092131;28;20028;-81
2022/05/18 02:38:21;;;;;;;8.63;7.50;;;;;;;-144.47;100.00;61586.06;5095683;28;20032;-81
2022/05/18 02:40:47;;;;;;;8.85;7.47;;;;;;;-144.47;100.00;61586.06;5094253;28;20054;-81
2022/05/18 02:43:12;;;;;;;9.40;8.15;;;;;;;187.31;100.00;61586.06;5090834;28;20059;-81
2022/05/18 02:45:37;;;;;;;16.73;7.72;;;;;;;-144.47;100.00;61586.06;5090725;28;20483;-81
2022/05/18 02:48:03;;;;;;;8.90;7.95;;;;;;;-144.47;100.00;61586.06;5089131;28;20112;-81
2022/05/18 02:50:29;;;;;;;8.32;7.47;;;;;;;-144.47;100.00;61586.06;5090856;28;20072;-82
2022/05/18 02:52:54;;;;;;;14.88;8.50;;;;;;;-144.47;100.00;61586.06;5090204;28;20024;-81
2022/05/18 02:58:04;;;;;;;14.52;8.52;;;;;;;187.31;100.00;61586.06;5090888;28;20030;-82
2022/05/18 03:00:29;;;;;;;12.20;8.90;;;;;;;-144.47;100.00;61586.06;5090331;28;20032;-81
2022/05/18 03:02:55;;;;;;;12.82;8.20;;;;;;;18.67;100.00;61586.06;5088909;28;20024;-82
2022/05/18 03:05:21;;;;;;;11.50;7.97;;;;;;;-144.47;100.00;61586.06;5090491;28;20088;-81
2022/05/18 03:07:46;;;;;;;12.02;7.10;;;;;;;-144.47;100.00;61586.06;5089623;28;20097;-81
2022/05/18 03:10:15;;;;;;;10.32;8.60;;;;;;;-144.47;100.00;61586.06;5089748;28;20032;-81
2022/05/18 03:12:43;;;;;;;9.65;7.88;;;;;;;-144.47;100.00;61586.06;5089700;28;20036;-81
2022/05/18 03:15:10;;;;;;;12.23;7.95;;;;;;;-144.47;100.00;61586.06;5093715;28;20486;-81
2022/05/18 03:17:36;;;;;;;9.65;8.40;;;;;;;-144.47;100.00;61586.06;5093423;28;20028;-81
2022/05/18 03:20:02;;;;;;;13.38;8.18;;;;;;;187.31;100.00;61586.06;5091871;28;20402;-81
2022/05/18 03:25:11;;;;;;;10.05;8.73;;;;;;;18.07;100.00;61586.06;5090348;28;20483;-81
2022/05/18 03:27:42;;;;;;;11.18;8.60;;;;;;;-144.47;100.00;61586.06;5093597;28;20039;-81
2022/05/18 03:30:09;;;;;;;10.55;8.55;;;;;;;-144.47;100.00;61586.06;5093695;28;20036;-81
2022/05/18 03:32:34;;;;;;;13.05;9.02;;;;;;;-144.47;100.00;61586.06;5093150;28;20028;-81
2022/05/18 03:35:00;;;;;;;10.80;8.05;;;;;;;-144.47;100.00;61586.06;5092535;28;20071;-81
2022/05/18 03:37:25;;;;;;;10.98;8.55;;;;;;;-144.47;100.00;61586.06;5073317;28;20111;-81
2022/05/18 03:39:51;;;;;;;10.00;8.80;;;;;;;-144.47;100.00;61586.06;5092955;28;20032;-81
2022/05/18 03:42:16;;;;;;;10.48;8.65;;;;;;;-144.47;100.00;61586.06;5092135;28;20076;-81
2022/05/18 03:44:42;;;;;;;10.57;8.02;;;;;;;-144.47;100.00;61586.06;5093159;28;20028;-81
2022/05/18 03:47:07;;;;;;;8.88;7.95;;;;;;;-144.47;100.00;61586.06;5093097;28;20035;-81
2022/05/18 03:49:33;;;;;;;10.25;7.57;;;;;;;-144.47;100.00;61586.06;5092784;28;20502;-81
2022/05/18 03:51:58;;;;;;;10.60;8.30;;;;;;;-144.47;100.00;61586.06;5092622;28;20032;-82
2022/05/18 03:54:24;;;;;;;10.95;8.43;;;;;;;-144.47;100.00;61586.06;5093286;28;20089;-81
2022/05/18 03:56:50;;;;;;;11.77;8.05;;;;;;;-144.47;100.00;61586.06;5092928;28;20375;-82
2022/05/18 03:59:15;;;;;;;8.98;8.07;;;;;;;-144.47;100.00;61586.06;5093213;28;20032;-82
2022/05/18 04:01:41;;;;;;;10.40;8.27;;;;;;;-144.47;100.00;61586.06;5093087;28;20036;-81
2022/05/18 04:04:07;;;;;;;10.05;7.88;;;;;;;-144.47;100.00;61586.06;5092804;28;20097;-81
2022/05/18 04:06:33;;;;;;;13.38;8.60;;;;;;;17.20;100.00;61586.06;5092682;28;20039;-81
2022/05/18 04:08:59;;;;;;;10.07;8.82;;;;;;;-144.47;100.00;61586.06;5092239;28;20048;-81
2022/05/18 04:11:24;;;;;;;12.27;8.98;;;;;;;-144.47;100.00;61586.06;5091408;28;20036;-81
2022/05/18 04:13:50;;;;;;;9.68;8.35;;;;;;;-144.47;100.00;61586.06;5092170;28;20032;-81
2022/05/18 04:16:16;;;;;;;13.55;9.25;;;;;;;21.26;100.00;61586.06;5092684;28;20043;-81
2022/05/18 04:18:42;;;;;;;9.25;8.07;;;;;;;17.47;100.00;61586.06;5092531;28;20032;-83
2022/05/18 04:21:07;;;;;;;10.18;8.73;;;;;;;-144.47;100.00;61586.06;5092538;28;20495;-81
2022/05/18 04:23:35;;;;;;;11.40;7.82;;;;;;;-144.47;100.00;61586.06;5093154;28;20412;-81
2022/05/18 04:26:01;;;;;;;11.00;8.38;;;;;;;18.67;100.00;61586.06;5092687;28;20089;-82
2022/05/18 04:28:27;;;;;;;9.25;8.35;;;;;;;-144.47;100.00;61586.06;5092394;28;20032;-81
2022/05/18 04:30:53;;;;;;;9.23;8.40;;;;;;;187.31;100.00;61586.06;5092141;28;20480;-81
2022/05/18 04:33:21;;;;;;;18.83;8.27;;;;;;;-144.47;100.00;61586.06;5089651;28;20028;-81
2022/05/18 04:35:49;;;;;;;13.50;8.18;;;;;;;-144.47;100.00;61586.06;5091514;28;20036;-80
2022/05/18 04:38:15;;;;;;;12.73;8.27;;;;;;;-144.47;100.00;61586.06;5092008;28;20039;-80
2022/05/18 04:40:41;;;;;;;12.82;8.55;;;;;;;-144.47;100.00;61586.06;5087016;28;20031;-81
2022/05/18 04:43:07;;;;;;;10.70;7.63;;;;;;;-144.47;100.00;61586.06;5091747;28;20052;-80
2022/05/18 04:45:32;;;;;;;13.43;8.90;;;;;;;-144.47;100.00;61586.06;5092015;28;20074;-82
2022/05/18 04:47:58;;;;;;;11.95;8.23;;;;;;;-144.47;100.00;61586.06;5091744;28;20040;-82
2022/05/18 04:50:23;;;;;;;13.82;8.20;;;;;;;-144.47;100.00;61586.06;5091468;28;20480;-81
2022/05/18 04:52:49;;;;;;;11.68;8.05;;;;;;;-144.47;100.00;61586.06;5091688;28;20028;-81
2022/05/18 04:55:15;;;;;;;11.63;8.13;;;;;;;-144.47;100.00;61586.06;5091682;28;20365;-81
2022/05/18 04:57:41;;;;;;;9.70;7.97;;;;;;;-144.47;100.00;61586.06;5087352;28;20460;-81
2022/05/18 05:00:10;;;;;;;12.15;8.30;;;;;;;-144.47;100.00;61586.06;5091834;28;20035;-81
2022/05/18 05:02:37;;;;;;;12.93;8.10;;;;;;;-144.47;100.00;61586.06;5091825;28;20067;-81
2022/05/18 05:05:06;;;;;;;12.65;7.88;;;;;;;-144.47;100.00;61586.06;5091234;28;20039;-81
2022/05/18 05:07:31;;;;;;;10.68;8.30;;;;;;;-144.47;100.00;61586.06;5091404;28;20032;-83
2022/05/18 05:09:56;;;;;;;9.38;7.70;;;;;;;-144.47;100.00;61586.06;5091386;28;20063;-81
2022/05/18 05:12:25;;;;;;;9.57;8.38;;;;;;;-144.47;100.00;61586.06;5089725;28;20051;-82
2022/05/18 05:14:50;;;;;;;11.68;8.88;;;;;;;-144.47;100.00;61586.06;5092243;28;20040;-84
2022/05/18 05:17:16;;;;;;;8.95;7.82;;;;;;;-144.47;100.00;61586.06;5088978;28;20040;-85
2022/05/18 05:19:41;;;;;;;12.55;8.63;;;;;;;-144.47;100.00;61586.06;5095764;28;20050;-81
2022/05/18 05:22:07;;;;;;;10.32;8.80;;;;;;;-144.47;100.00;61586.06;5089151;28;20031;-80
2022/05/18 05:24:33;;;;;;;12.73;8.52;;;;;;;21.26;100.00;61586.06;5092014;28;20076;-83
2022/05/18 05:26:58;;;;;;;10.82;8.82;;;;;;;-144.47;100.00;61586.06;5090509;28;20413;-82
2022/05/18 05:29:24;;;;;;;13.95;9.35;;;;;;;-144.47;100.00;61586.06;5092340;28;20039;-83
2022/05/18 05:31:49;;;;;;;13.68;9.82;;;;;;;18.71;100.00;61586.06;5092278;28;20456;-83
2022/05/18 05:34:15;;;;;;;10.73;9.32;;;;;;;-144.47;100.00;61586.06;5090674;28;20032;-80
2022/05/18 05:36:41;;;;;;;12.68;9.63;;;;;;;-144.47;100.00;61586.06;5087059;28;20052;-79
2022/05/18 05:39:06;;;;;;;12.68;9.52;;;;;;;-144.47;100.00;61586.06;5089708;28;20034;-78
2022/05/18 05:41:32;;;;;;;10.35;9.15;;;;;;;-144.47;100.00;61586.06;5091006;28;20043;-76
2022/05/18 05:43:57;;;;;;;15.35;9.75;;;;;;;-144.47;100.00;61586.06;5089892;28;20160;-80
2022/05/18 05:46:27;;;;;;;12.95;9.88;;;;;;;-144.47;100.00;61586.06;5092434;28;20078;-81
2022/05/18 05:48:54;;;;;;;15.32;9.80;;;;;;;-144.47;100.00;61586.06;5090761;28;20591;-76
2022/05/18 05:51:23;;;;;;;15.98;9.88;;;;;;;-144.47;100.00;61586.06;5095895;28;20055;-79
2022/05/18 05:53:49;;;;;;;17.48;10.00;;;;;;;-144.47;100.00;61586.06;5091079;28;20446;-82
2022/05/18 05:56:15;;;;;;;15.50;9.73;;;;;;;19.52;100.00;61586.06;5090842;28;20353;-80
2022/05/18 05:58:43;;;;;;;12.20;8.82;;;;;;;19.97;100.00;61586.06;5094639;28;20042;-80
2022/05/18 06:01:11;;;;;;;14.88;9.30;;;;;;;-144.47;100.00;61586.06;5091669;28;20101;-69
2022/05/18 06:03:37;;;;;;;15.82;9.38;;;;;;;21.26;100.00;61586.06;5091457;28;20044;-71
2022/05/18 06:06:04;;;;;;;12.32;9.65;;;;;;;-144.47;100.00;61586.06;5089194;28;20031;-71
2022/05/18 06:08:31;;;;;;;18.95;9.40;;;;;;;21.26;100.00;61586.06;5089506;28;20051;-81
2022/05/18 06:11:00;;;;;;;11.13;9.60;;;;;;;-144.47;100.00;61586.06;5087619;28;20483;-80
2022/05/18 06:13:26;;;;;;;15.23;10.13;;;;;;;19.97;100.00;61586.06;5090184;28;20506;-80
2022/05/18 06:15:52;;;;;;;13.15;9.50;;;;;;;187.31;100.00;61586.06;5090724;28;20097;-80
2022/05/18 06:18:18;;;;;;;15.15;10.18;;;;;;;187.31;100.00;61586.06;5091561;28;20527;-80
2022/05/18 06:20:47;;;;;;;15.23;10.07;;;;;;;21.26;100.00;61586.06;5089793;28;20465;-80
2022/05/18 06:23:13;;;;;;;17.40;10.35;;;;;;;-144.47;100.00;61586.06;5087627;28;20036;-80
2022/05/18 06:25:39;;;;;;;19.77;10.50;;;;;;;-144.47;100.00;61586.06;5089193;28;20024;-80
2022/05/18 06:28:06;;;;;;;15.38;11.25;;;;;;;187.31;100.00;61586.06;5090890;28;20120;-81
2022/05/18 06:30:32;;;;;;;16.85;10.57;;;;;;;-144.47;100.00;61586.06;5091457;28;20510;-81
2022/05/18 06:32:57;;;;;;;14.38;10.90;;;;;;;-144.47;100.00;61586.06;5092648;28;20033;-80
2022/05/18 06:35:23;;;;;;;12.63;10.20;;;;;;;-144.47;100.00;61586.06;5098000;28;20086;-80
2022/05/18 06:37:49;;;;;;;14.18;11.13;;;;;;;-144.47;100.00;61586.06;5104664;28;20115;-81
2022/05/18 06:40:15;;;;;;;15.88;10.43;;;;;;;-144.47;100.00;61586.06;5110119;28;20122;-80
2022/05/18 06:42:41;;;;;;;11.77;10.55;;;;;;;-144.47;100.00;61586.06;5107106;28;20055;-80
2022/05/18 06:45:08;;;;;;;12.18;10.50;;;;;;;-144.47;100.00;61586.06;5089484;28;20047;-80
2022/05/18 06:47:35;;;;;;;13.52;10.93;;;;;;;-144.47;100.00;61586.06;5095040;28;20044;-82
2022/05/18 06:50:03;;;;;;;16.45;11.00;;;;;;;-144.47;100.00;61586.06;5094215;28;20127;-82
2022/05/18 06:52:28;;;;;;;15.52;11.75;;;;;;;-144.47;100.00;61586.06;5094280;28;20173;-81
2022/05/18 06:54:54;;;;;;;15.43;11.32;;;;;;;-144.47;100.00;61586.06;5093760;28;20126;-82
2022/05/18 06:57:19;;;;;;;14.38;10.93;;;;;;;-144.47;100.00;61586.06;5094350;28;20468;-81
2022/05/18 06:59:45;;;;;;;14.05;10.30;;;;;;;-144.47;100.00;61586.06;5093848;28;20032;-82
2022/05/18 07:02:10;;;;;;;15.23;9.40;;;;;;;-144.47;100.00;61586.06;5093924;28;20028;-82
2022/05/18 07:04:36;;;;;;;14.52;9.10;;;;;;;-144.47;100.00;61586.06;5093204;28;20110;-81
2022/05/18 07:07:02;;;;;;;11.35;8.20;;;;;;;-144.47;100.00;61586.06;5093915;28;20024;-81
2022/05/18 07:09:28;;;;;;;9.73;7.22;;;;;;;-144.47;100.00;61586.06;5093652;28;20058;-82
2022/05/18 07:11:54;;;;;;;8.50;7.40;;;;;;;-144.47;100.00;61586.06;5093614;28;20103;-81
2022/05/18 07:14:22;;;;;;;12.93;7.30;;;;;;;-144.47;100.00;61586.06;5093746;28;20161;-82
2022/05/18 07:16:48;;;;;;;10.70;7.03;;;;;;;-144.47;100.00;61586.06;5093222;28;20111;-82
2022/05/18 07:19:16;;;;;;;11.63;6.78;;;;;;;-144.47;100.00;61586.06;5093258;28;20157;-82
2022/05/18 07:21:41;;;;;;;12.73;6.85;;;;;;;-144.47;100.00;61586.06;5086553;28;20123;-81
2022/05/18 07:24:08;;;;;;;6.82;6.07;;;;;;;-144.47;100.00;61586.06;5093354;28;20110;-81
2022/05/18 07:26:34;;;;;;;9.88;7.60;;;;;;;-144.47;100.00;61586.06;5093049;28;20024;-79
2022/05/18 07:29:01;;;;;;;10.93;7.00;;;;;;;22.51;100.00;84585.13;5092628;28;20507;-78
2022/05/18 07:31:29;;;;;;;12.70;6.68;;;;;;;-144.47;100.00;61586.06;5093421;28;20384;-79
2022/05/18 07:33:55;;;;;;;10.75;7.20;;;;;;;-144.47;100.00;61586.06;5093742;28;20318;-84
2022/05/18 07:36:21;;;;;;;9.90;6.72;;;;;;;-144.47;100.00;61586.06;5099141;28;20024;-85
2022/05/18 07:38:47;;;;;;;9.15;6.85;;;;;;;-144.47;100.00;61586.06;5097825;28;20073;-82
2022/05/18 07:41:15;;;;;;;10.23;6.43;;;;;;;-144.47;100.00;61586.06;5095385;28;20207;-84
2022/05/18 07:43:41;;;;;;;10.48;7.20;;;;;;;-144.47;100.00;61586.06;5089654;28;20032;-83
2022/05/18 07:46:09;;;;;;;7.95;6.18;;;;;;;-144.47;100.00;61586.06;5093820;28;20030;-84
2022/05/18 07:48:36;;;;;;;8.10;6.47;;;;;;;-144.47;100.00;61586.06;5092660;28;20036;-80
2022/05/18 07:51:02;;;;;;;9.98;7.07;;;;;;;-144.47;100.00;61586.06;5092359;28;20051;-79
2022/05/18 07:53:28;;;;;;;7.97;6.82;;;;;;;-144.47;100.00;61586.06;5092412;28;20056;-79
2022/05/18 07:55:53;;;;;;;9.55;7.05;;;;;;;-144.47;100.00;61586.06;5092755;28;20062;-78
2022/05/18 07:58:20;;;;;;;11.10;6.00;;;;;;;-144.47;100.00;61586.06;5092571;28;20449;-79
2022/05/18 08:00:46;;;;;;;8.57;6.45;;;;;;;-144.47;100.00;61586.06;5092088;28;20036;-79
2022/05/18 08:03:13;;;;;;;11.52;7.28;;;;;;;-144.47;100.00;61586.06;5092378;28;20028;-78
2022/05/18 08:05:44;;;;;;;8.02;6.50;;;;;;;-144.47;100.00;61586.06;5092174;28;20028;-80
2022/05/18 08:08:17;;;;;;;10.15;6.60;;;;;;;-144.47;100.00;61586.06;5092088;28;20123;-80
2022/05/18 08:16:13;;;;;;;9.13;5.97;;;;;;;187.31;100.00;61586.06;5092455;28;20097;-77
2022/05/18 08:18:39;;;;;;;9.18;7.00;;;;;;;-144.47;100.00;61586.06;5092297;28;20460;-77
2022/05/18 08:21:05;;;;;;;18.77;6.72;;;;;;;-144.47;100.00;61586.06;5092405;28;20039;-77
2022/05/18 08:23:30;;;;;;;11.98;6.78;;;;;;;-144.47;100.00;61586.06;5093048;28;20028;-78
2022/05/18 08:25:57;;;;;;;11.02;6.75;;;;;;;23.74;100.00;61586.06;5091525;28;20036;-78
2022/05/18 08:28:23;;;;;;;7.10;6.10;;;;;;;-144.47;100.00;61586.06;5092640;28;20024;-84
2022/05/18 08:30:49;;;;;;;8.48;6.90;;;;;;;104.25;100.00;61586.06;5094717;28;20031;-84
2022/05/18 08:33:15;;;;;;;8.77;6.35;;;;;;;-144.47;100.00;61586.06;5089635;28;20483;-83
2022/05/18 08:35:43;;;;;;;11.75;6.68;;;;;;;-144.47;100.00;61586.06;5092296;28;20071;-83
2022/05/18 08:38:10;;;;;;;12.25;7.20;;;;;;;62.74;100.00;61586.06;5085568;28;20043;-83
2022/05/18 08:40:44;;;;;;;9.02;6.30;;;;;;;62.74;100.00;61586.06;5084738;28;20047;-83
2022/05/18 08:43:16;;;;;;;9.27;6.32;;;;;;;62.74;100.00;61586.06;5080266;28;20499;-83
2022/05/18 08:45:48;;;;;;;11.55;6.95;;;;;;;31.63;100.00;61586.06;5079606;28;20404;-79
2022/05/18 08:49:09;;;;;;;10.02;5.85;;;;;;;42.00;100.00;61586.06;5078871;28;20076;-78
2022/05/18 08:51:50;;;;;;;9.27;6.10;;;;;;;42.00;100.00;61586.06;5068921;28;20709;-76
2022/05/18 08:54:24;;;;;;;;;;;;;;;42.00;100.00;61586.06;5076826;28;20035;-78
2022/05/18 08:56:53;;;;;;;9.73;6.25;;;;;;;-144.47;100.00;61586.06;5078303;28;19924;-77
2022/05/18 08:59:24;;;;;;;7.93;6.63;;;;;;;62.74;100.00;61586.06;5078126;28;20043;-78
2022/05/18 09:01:51;;;;;;;7.82;6.22;;;;;;;62.74;100.00;61586.06;5076982;28;20036;-81
2022/05/18 09:04:23;;;;;;;9.70;6.07;;;;;;;25.15;100.00;61586.06;5074718;28;20159;-78
2022/05/18 09:06:54;;;;;;;9.98;6.55;;;;;;;42.00;100.00;61586.06;5078052;28;20036;-78
2022/05/18 09:12:26;;;;;;;6.55;5.63;;;;;;;42.00;100.00;61586.06;5078497;28;20056;-80
2022/05/18 09:14:52;;;;;;;10.48;6.10;;;;;;;62.74;100.00;61586.06;5075579;28;20028;-75
2022/05/18 09:17:23;;;;;;;7.38;5.13;;;;;;;42.00;100.00;61586.06;5076938;28;20054;-75
2022/05/18 09:19:51;;;;;;;8.32;5.90;;;;;;;42.00;100.00;61586.06;5077079;28;20111;-74
2022/05/18 09:22:16;;;;;;;13.90;5.72;;;;;;;104.25;100.00;61586.06;5077427;28;20051;-75
2022/05/18 09:24:57;;;;;;;8.60;5.50;;;;;;;42.00;100.00;61586.06;5075173;28;20032;-77
2022/05/18 09:27:51;;;;;;;9.18;5.72;;;;;;;42.00;100.00;61586.06;5075689;28;20681;-78
2022/05/18 09:30:54;;;;;;;11.52;5.68;;;;;;;-144.47;100.00;61586.06;5076673;28;20035;-78
2022/05/18 09:33:27;;;;;;;8.68;5.10;;;;;;;62.74;100.00;61586.06;5075411;28;20040;-78
2022/05/18 09:36:14;;;;;;;8.52;5.85;;;;;;;-144.47;100.00;61586.06;5076772;28;20158;-80
2022/05/18 09:39:03;;;;;;;8.57;6.15;;;;;;;-144.47;100.00;61586.06;5076059;28;20567;-75
2022/05/18 09:41:39;;;;;;;9.65;5.97;;;;;;;-144.47;100.00;61586.06;5077709;28;20048;-76
2022/05/18 09:44:31;;;;;;;12.00;5.72;;;;;;;-144.47;100.00;61586.06;5075477;28;20388;-75
2022/05/18 09:46:59;;;;;;;9.70;6.38;;;;;;;-144.47;100.00;61586.06;5076685;28;20912;-77
2022/05/18 09:49:31;;;;;;;7.43;6.70;;;;;;;-144.47;100.00;61586.06;5076952;28;20507;-76
2022/05/18 09:52:01;;;;;;;10.88;5.90;;;;;;;25.40;100.00;61586.06;5076859;28;20031;-74
2022/05/18 09:54:30;;;;;;;12.75;7.70;;;;;;;-144.47;100.00;61586.06;5075604;28;20482;-76
2022/05/18 09:57:06;;;;;;;8.82;6.68;;;;;;;-144.47;100.00;61586.06;5077056;28;20917;-78
2022/05/18 09:59:39;;;;;;;11.90;7.57;;;;;;;-144.47;100.00;61586.06;5077505;28;20433;-79
2022/05/18 10:07:50;;;;;;;14.07;5.80;;;;;;;-144.47;100.00;61586.06;5076067;28;20067;-78
2022/05/18 10:10:23;;;;;;;7.32;6.25;;;;;;;-144.47;100.00;61586.06;5075900;28;20189;-78
2022/05/18 10:12:55;;;;;;;8.05;5.93;;;;;;;-144.47;100.00;61586.06;5074778;28;20036;-78
2022/05/18 10:15:31;;;;;;;12.48;7.28;;;;;;;-144.47;100.00;61586.06;5076991;28;20429;-77
2022/05/18 10:18:25;;;;;;;11.23;5.90;;;;;;;-144.47;100.00;61586.06;5076414;28;20032;-77
2022/05/18 10:21:11;;;;;;;5.50;4.97;;;;;;;187.31;100.00;61586.06;5076254;28;20043;-77
2022/05/18 10:23:56;;;;;;;7.55;6.05;;;;;;;-144.47;100.00;61586.06;5074753;28;20047;-78
2022/05/18 10:27:23;;;;;;;11.90;6.85;;;;;;;-144.47;100.00;61586.06;5076004;28;20036;-77
2022/05/18 10:30:28;;;;;;;12.43;6.32;;;;;;;-144.47;100.00;61586.06;5044232;28;20338;-77
2022/05/18 10:33:06;;;;;;;8.98;6.43;;;;;;;-144.47;100.00;61586.06;5074491;28;20478;-76
2022/05/18 10:35:48;;;;;;;11.68;5.95;;;;;;;-144.47;100.00;61586.06;5078267;28;20072;-77
2022/05/18 10:38:19;;;;;;;9.90;5.95;;;;;;;-144.47;100.00;61586.06;5081318;28;20032;-76
2022/05/18 10:40:45;;;;;;;13.35;5.47;;;;;;;-144.47;100.00;61586.06;5079582;28;20143;-80
2022/05/18 10:43:31;;;;;;;7.60;5.47;;;;;;;-144.47;100.00;61586.06;5093717;28;20047;-82
2022/05/18 10:46:01;;;;;;;10.00;5.25;;;;;;;26.05;100.00;104042.75;5059638;28;20143;-83
2022/05/18 10:48:29;;;;;;;11.98;5.53;;;;;;;-144.47;100.00;61586.06;5088854;28;20032;-81
2022/05/18 10:51:11;;;;;;;11.13;5.80;;;;;;;-144.47;100.00;61586.06;5088359;28;20043;-81
2022/05/18 10:53:42;;;;;;;7.88;5.25;;;;;;;-144.47;100.00;61586.06;5074505;28;20097;-81
2022/05/18 10:56:28;;;;;;;7.05;5.25;;;;;;;-144.47;100.00;61586.06;5077484;28;20422;-83
2022/05/18 10:59:26;;;;;;;9.95;5.63;;;;;;;-144.47;100.00;61586.06;5078253;28;20040;-81
2022/05/18 11:02:00;;;;;;;7.65;4.72;;;;;;;-144.47;100.00;61586.06;5059116;28;20052;-81
2022/05/18 11:04:47;;;;;;;8.80;5.07;;;;;;;-144.47;100.00;61586.06;5074129;28;20122;-84
2022/05/18 11:07:12;;;;;;;7.65;4.97;;;;;;;-144.47;100.00;61586.06;5077667;28;20043;-84
2022/05/18 11:09:40;;;;;;;8.60;5.38;;;;;;;-144.47;100.00;61586.06;5075824;28;20459;-80
2022/05/18 11:12:30;;;;;;;6.80;5.53;;;;;;;-144.47;100.00;61586.06;5075909;28;20047;-81
2022/05/18 11:14:55;;;;;;;;;;;;;;;-144.47;100.00;61586.06;4721972;28;10000607;-81
2022/05/18 11:17:51;;;;;;;9.23;4.85;;;;;;;-144.47;100.00;61586.06;5075360;28;20450;-82
2022/05/18 11:20:29;;;;;;;5.35;4.55;;;;;;;-144.47;100.00;61586.06;5074983;28;20051;-80
2022/05/18 11:23:00;;;;;;;8.60;4.80;;;;;;;-144.47;100.00;61586.06;5073521;28;20040;-80
2022/05/18 11:25:45;;;;;;;7.28;5.70;;;;;;;-144.47;100.00;61586.06;5074541;28;20047;-79
2022/05/18 11:28:47;;;;;;;10.07;5.25;;;;;;;-144.47;100.00;61586.06;5074625;28;20085;-81
2022/05/18 11:31:34;;;;;;;8.32;5.15;;;;;;;-144.47;100.00;61586.06;5075230;28;20062;-82
2022/05/18 11:34:04;;;;;;;13.70;4.90;;;;;;;-144.47;100.00;61586.06;5074465;28;20031;-80
2022/05/18 11:36:58;;;;;;;9.40;4.95;;;;;;;-144.47;100.00;61586.06;5077062;28;20048;-77